KLEX/LEX METAR and TAF weather

Enter ICAO airport designator
Station Type Date Time Source
KLEX METAR 2019/02/22 23:54 UTC NOAA

KLEX 222354Z 07008KT 10SM OVC034 07/00 A3029 RMK AO2 SLP262 T00670000 10072 20061 53005


Station Type Date Time Source
KLEX Decoded METAR 2019/02/22 23:54 UTC NOAA

LEXINGTON BLUE GRASS AIRPORT, KY, United States (KLEX) 38-02N 084-36W 300M
Feb 22, 2019 - 06:54 PM EST / 2019.02.22 2354 UTC
Wind: from the ENE (070 degrees) at 9 MPH (8 KT):0
Visibility: 10 mile(s):0
Sky conditions: overcast
Temperature: 44.1 F (6.7 C)
Dew Point: 32.0 F (0.0 C)
Relative Humidity: 62%
Pressure (altimeter): 30.29 in. Hg (1025 hPa)
Pressure tendency: 0.01 inches (0.5 hPa) higher than three hours ago
ob: KLEX 222354Z 07008KT 10SM OVC034 07/00 A3029 RMK AO2 SLP262 T00670000 10072 20061 53005
cycle: 0

Station Type Date Time Source
KLEX TAF 2019/02/22 18:36 UTC NOAA

TAF KLEX 221733Z 2218/2318 08010KT P6SM OVC120
FM230300 09009KT P6SM -SHRA BKN035 OVC040
FM230700 10008KT P6SM -SHRA OVC028
FM230900 11007KT P6SM -SHRA OVC014
FM231100 12009KT 5SM -SHRA OVC009 WS020/18035KT
FM231700 15012G20KT 4SM SHRA VCTS OVC012CB


Example: see airport list